sensor_id;sensor_type;location;lat;lon;timestamp;P1;durP1;ratioP1;P2;durP2;ratioP2
54855;SDS011;40748;53.168;5.800;2022-10-16T00:06:22;0.90;;;0.50;;
54855;SDS011;40748;53.168;5.800;2022-10-16T00:11:24;0.10;;;0.00;;
54855;SDS011;40748;53.168;5.800;2022-10-16T00:16:21;0.10;;;0.00;;
54855;SDS011;40748;53.168;5.800;2022-10-16T00:18:52;0.10;;;0.00;;
54855;SDS011;40748;53.168;5.800;2022-10-16T00:21:25;0.30;;;0.10;;
54855;SDS011;40748;53.168;5.800;2022-10-16T00:23:53;0.30;;;0.10;;
54855;SDS011;40748;53.168;5.800;2022-10-16T00:26:22;0.30;;;0.10;;
54855;SDS011;40748;53.168;5.800;2022-10-16T00:28:52;0.30;;;0.10;;
54855;SDS011;40748;53.168;5.800;2022-10-16T00:31:23;0.10;;;0.00;;
54855;SDS011;40748;53.168;5.800;2022-10-16T00:33:52;0.10;;;0.00;;
54855;SDS011;40748;53.168;5.800;2022-10-16T00:36:24;0.10;;;0.00;;
54855;SDS011;40748;53.168;5.800;2022-10-16T00:41:23;0.20;;;0.00;;
54855;SDS011;40748;53.168;5.800;2022-10-16T00:43:53;0.20;;;0.00;;
54855;SDS011;40748;53.168;5.800;2022-10-16T00:46:24;0.20;;;0.00;;
54855;SDS011;40748;53.168;5.800;2022-10-16T00:48:56;0.20;;;0.00;;
54855;SDS011;40748;53.168;5.800;2022-10-16T00:51:25;0.10;;;0.00;;
54855;SDS011;40748;53.168;5.800;2022-10-16T00:53:52;0.10;;;0.00;;
54855;SDS011;40748;53.168;5.800;2022-10-16T00:56:22;0.10;;;0.00;;
54855;SDS011;40748;53.168;5.800;2022-10-16T00:58:52;0.10;;;0.00;;
54855;SDS011;40748;53.168;5.800;2022-10-16T01:01:22;0.20;;;0.00;;
54855;SDS011;40748;53.168;5.800;2022-10-16T01:03:51;0.20;;;0.00;;
54855;SDS011;40748;53.168;5.800;2022-10-16T01:06:24;0.20;;;0.00;;
54855;SDS011;40748;53.168;5.800;2022-10-16T01:09:02;0.20;;;0.00;;
54855;SDS011;40748;53.168;5.800;2022-10-16T01:11:27;0.10;;;0.00;;
54855;SDS011;40748;53.168;5.800;2022-10-16T01:13:55;0.10;;;0.00;;
54855;SDS011;40748;53.168;5.800;2022-10-16T01:16:30;0.10;;;0.00;;
54855;SDS011;40748;53.168;5.800;2022-10-16T01:18:55;0.10;;;0.00;;
54855;SDS011;40748;53.168;5.800;2022-10-16T01:21:26;0.10;;;0.00;;
54855;SDS011;40748;53.168;5.800;2022-10-16T01:24:01;0.10;;;0.00;;
54855;SDS011;40748;53.168;5.800;2022-10-16T01:26:31;0.10;;;0.00;;
54855;SDS011;40748;53.168;5.800;2022-10-16T01:28:55;0.10;;;0.00;;
54855;SDS011;40748;53.168;5.800;2022-10-16T01:33:57;0.40;;;0.10;;
54855;SDS011;40748;53.168;5.800;2022-10-16T01:36:28;0.40;;;0.10;;
54855;SDS011;40748;53.168;5.800;2022-10-16T01:38:54;0.40;;;0.10;;
54855;SDS011;40748;53.168;5.800;2022-10-16T01:41:28;0.10;;;0.00;;
54855;SDS011;40748;53.168;5.800;2022-10-16T01:43:57;0.10;;;0.00;;
54855;SDS011;40748;53.168;5.800;2022-10-16T01:46:23;0.10;;;0.00;;
54855;SDS011;40748;53.168;5.800;2022-10-16T01:51:23;0.10;;;0.00;;
54855;SDS011;40748;53.168;5.800;2022-10-16T01:53:53;0.10;;;0.00;;
54855;SDS011;40748;53.168;5.800;2022-10-16T01:56:24;0.10;;;0.00;;
54855;SDS011;40748;53.168;5.800;2022-10-16T01:58:54;0.10;;;0.00;;
54855;SDS011;40748;53.168;5.800;2022-10-16T02:01:24;0.10;;;0.00;;
54855;SDS011;40748;53.168;5.800;2022-10-16T02:03:54;0.10;;;0.00;;
54855;SDS011;40748;53.168;5.800;2022-10-16T02:06:22;0.10;;;0.00;;
54855;SDS011;40748;53.168;5.800;2022-10-16T02:08:53;0.10;;;0.00;;
54855;SDS011;40748;53.168;5.800;2022-10-16T02:13:56;0.30;;;0.10;;
54855;SDS011;40748;53.168;5.800;2022-10-16T02:18:52;0.30;;;0.10;;
54855;SDS011;40748;53.168;5.800;2022-10-16T02:21:25;0.20;;;0.10;;
54855;SDS011;40748;53.168;5.800;2022-10-16T02:26:26;0.20;;;0.10;;
54855;SDS011;40748;53.168;5.800;2022-10-16T02:28:55;0.20;;;0.10;;
54855;SDS011;40748;53.168;5.800;2022-10-16T02:31:26;0.10;;;0.00;;
54855;SDS011;40748;53.168;5.800;2022-10-16T02:33:52;0.10;;;0.00;;
54855;SDS011;40748;53.168;5.800;2022-10-16T02:36:22;0.10;;;0.00;;
54855;SDS011;40748;53.168;5.800;2022-10-16T02:41:23;0.20;;;0.00;;
54855;SDS011;40748;53.168;5.800;2022-10-16T02:46:22;0.20;;;0.00;;
54855;SDS011;40748;53.168;5.800;2022-10-16T02:48:52;0.20;;;0.00;;
54855;SDS011;40748;53.168;5.800;2022-10-16T02:53:52;0.40;;;0.10;;
54855;SDS011;40748;53.168;5.800;2022-10-16T02:56:22;0.40;;;0.10;;
54855;SDS011;40748;53.168;5.800;2022-10-16T03:01:22;0.20;;;0.10;;
54855;SDS011;40748;53.168;5.800;2022-10-16T03:03:51;0.20;;;0.10;;
54855;SDS011;40748;53.168;5.800;2022-10-16T03:06:22;0.20;;;0.10;;
54855;SDS011;40748;53.168;5.800;2022-10-16T03:08:52;0.20;;;0.10;;
54855;SDS011;40748;53.168;5.800;2022-10-16T03:11:22;0.60;;;0.20;;
54855;SDS011;40748;53.168;5.800;2022-10-16T03:13:52;0.60;;;0.20;;
54855;SDS011;40748;53.168;5.800;2022-10-16T03:16:22;0.60;;;0.20;;
54855;SDS011;40748;53.168;5.800;2022-10-16T03:18:52;0.60;;;0.20;;
54855;SDS011;40748;53.168;5.800;2022-10-16T03:21:21;0.10;;;0.00;;
54855;SDS011;40748;53.168;5.800;2022-10-16T03:23:51;0.10;;;0.00;;
54855;SDS011;40748;53.168;5.800;2022-10-16T03:28:52;0.10;;;0.00;;
54855;SDS011;40748;53.168;5.800;2022-10-16T03:31:22;0.10;;;0.00;;
54855;SDS011;40748;53.168;5.800;2022-10-16T03:36:22;0.10;;;0.00;;
54855;SDS011;40748;53.168;5.800;2022-10-16T03:38:52;0.10;;;0.00;;
54855;SDS011;40748;53.168;5.800;2022-10-16T03:41:22;0.10;;;0.00;;
54855;SDS011;40748;53.168;5.800;2022-10-16T03:43:52;0.10;;;0.00;;
54855;SDS011;40748;53.168;5.800;2022-10-16T03:46:22;0.10;;;0.00;;
54855;SDS011;40748;53.168;5.800;2022-10-16T03:48:52;0.10;;;0.00;;
54855;SDS011;40748;53.168;5.800;2022-10-16T03:53:52;0.20;;;0.10;;
54855;SDS011;40748;53.168;5.800;2022-10-16T03:56:22;0.20;;;0.10;;
54855;SDS011;40748;53.168;5.800;2022-10-16T03:58:52;0.20;;;0.10;;
54855;SDS011;40748;53.168;5.800;2022-10-16T04:01:22;0.10;;;0.00;;
54855;SDS011;40748;53.168;5.800;2022-10-16T04:03:52;0.10;;;0.00;;
54855;SDS011;40748;53.168;5.800;2022-10-16T04:06:22;0.10;;;0.00;;
54855;SDS011;40748;53.168;5.800;2022-10-16T04:08:52;0.10;;;0.00;;
54855;SDS011;40748;53.168;5.800;2022-10-16T04:11:22;0.60;;;0.10;;
54855;SDS011;40748;53.168;5.800;2022-10-16T04:13:52;0.60;;;0.10;;
54855;SDS011;40748;53.168;5.800;2022-10-16T04:16:22;0.60;;;0.10;;
54855;SDS011;40748;53.168;5.800;2022-10-16T04:18:52;0.60;;;0.10;;
54855;SDS011;40748;53.168;5.800;2022-10-16T04:21:22;0.10;;;0.00;;
54855;SDS011;40748;53.168;5.800;2022-10-16T04:23:52;0.10;;;0.00;;
54855;SDS011;40748;53.168;5.800;2022-10-16T04:26:22;0.10;;;0.00;;
54855;SDS011;40748;53.168;5.800;2022-10-16T04:28:52;0.10;;;0.00;;
54855;SDS011;40748;53.168;5.800;2022-10-16T04:31:22;1.10;;;0.90;;
54855;SDS011;40748;53.168;5.800;2022-10-16T04:33:52;1.10;;;0.90;;
54855;SDS011;40748;53.168;5.800;2022-10-16T04:36:22;1.10;;;0.90;;
54855;SDS011;40748;53.168;5.800;2022-10-16T04:38:52;1.10;;;0.90;;
54855;SDS011;40748;53.168;5.800;2022-10-16T04:41:22;0.30;;;0.10;;
54855;SDS011;40748;53.168;5.800;2022-10-16T04:46:22;0.30;;;0.10;;
54855;SDS011;40748;53.168;5.800;2022-10-16T04:48:52;0.30;;;0.10;;
54855;SDS011;40748;53.168;5.800;2022-10-16T04:51:22;0.10;;;0.00;;
54855;SDS011;40748;53.168;5.800;2022-10-16T04:53:52;0.10;;;0.00;;
54855;SDS011;40748;53.168;5.800;2022-10-16T04:56:22;0.10;;;0.00;;
54855;SDS011;40748;53.168;5.800;2022-10-16T04:58:52;0.10;;;0.00;;
54855;SDS011;40748;53.168;5.800;2022-10-16T05:01:22;0.10;;;0.00;;
54855;SDS011;40748;53.168;5.800;2022-10-16T05:03:52;0.10;;;0.00;;
54855;SDS011;40748;53.168;5.800;2022-10-16T05:06:22;0.10;;;0.00;;
54855;SDS011;40748;53.168;5.800;2022-10-16T05:08:52;0.10;;;0.00;;
54855;SDS011;40748;53.168;5.800;2022-10-16T05:11:22;0.10;;;0.00;;
54855;SDS011;40748;53.168;5.800;2022-10-16T05:13:52;0.10;;;0.00;;
54855;SDS011;40748;53.168;5.800;2022-10-16T05:16:22;0.10;;;0.00;;
54855;SDS011;40748;53.168;5.800;2022-10-16T05:18:53;0.10;;;0.00;;
54855;SDS011;40748;53.168;5.800;2022-10-16T05:21:22;0.30;;;0.20;;
54855;SDS011;40748;53.168;5.800;2022-10-16T05:23:52;0.30;;;0.20;;
54855;SDS011;40748;53.168;5.800;2022-10-16T05:26:22;0.30;;;0.20;;
54855;SDS011;40748;53.168;5.800;2022-10-16T05:28:52;0.30;;;0.20;;
54855;SDS011;40748;53.168;5.800;2022-10-16T05:31:22;0.40;;;0.10;;
54855;SDS011;40748;53.168;5.800;2022-10-16T05:33:52;0.40;;;0.10;;
54855;SDS011;40748;53.168;5.800;2022-10-16T05:36:22;0.40;;;0.10;;
54855;SDS011;40748;53.168;5.800;2022-10-16T05:38:52;0.40;;;0.10;;
54855;SDS011;40748;53.168;5.800;2022-10-16T05:43:52;0.10;;;0.00;;
54855;SDS011;40748;53.168;5.800;2022-10-16T05:46:22;0.10;;;0.00;;
54855;SDS011;40748;53.168;5.800;2022-10-16T05:48:52;0.10;;;0.00;;
54855;SDS011;40748;53.168;5.800;2022-10-16T05:51:22;0.10;;;0.00;;
54855;SDS011;40748;53.168;5.800;2022-10-16T05:53:52;0.10;;;0.00;;
54855;SDS011;40748;53.168;5.800;2022-10-16T05:56:22;0.10;;;0.00;;
54855;SDS011;40748;53.168;5.800;2022-10-16T05:58:52;0.10;;;0.00;;
54855;SDS011;40748;53.168;5.800;2022-10-16T06:01:22;0.10;;;0.00;;
54855;SDS011;40748;53.168;5.800;2022-10-16T06:06:23;0.10;;;0.00;;
54855;SDS011;40748;53.168;5.800;2022-10-16T06:08:53;0.10;;;0.00;;
54855;SDS011;40748;53.168;5.800;2022-10-16T06:11:24;0.10;;;0.00;;
54855;SDS011;40748;53.168;5.800;2022-10-16T06:13:53;0.10;;;0.00;;
54855;SDS011;40748;53.168;5.800;2022-10-16T06:16:23;0.10;;;0.00;;
54855;SDS011;40748;53.168;5.800;2022-10-16T06:18:53;0.10;;;0.00;;
54855;SDS011;40748;53.168;5.800;2022-10-16T06:21:23;0.10;;;0.00;;
54855;SDS011;40748;53.168;5.800;2022-10-16T06:26:23;0.10;;;0.00;;
54855;SDS011;40748;53.168;5.800;2022-10-16T06:28:54;0.10;;;0.00;;
54855;SDS011;40748;53.168;5.800;2022-10-16T06:31:22;0.40;;;0.20;;
54855;SDS011;40748;53.168;5.800;2022-10-16T06:33:52;0.40;;;0.20;;
54855;SDS011;40748;53.168;5.800;2022-10-16T06:36:23;0.40;;;0.20;;
54855;SDS011;40748;53.168;5.800;2022-10-16T06:38:52;0.40;;;0.20;;
54855;SDS011;40748;53.168;5.800;2022-10-16T06:41:22;0.20;;;0.00;;
54855;SDS011;40748;53.168;5.800;2022-10-16T06:43:52;0.20;;;0.00;;
54855;SDS011;40748;53.168;5.800;2022-10-16T06:48:53;0.20;;;0.00;;
54855;SDS011;40748;53.168;5.800;2022-10-16T06:51:23;0.20;;;0.00;;
54855;SDS011;40748;53.168;5.800;2022-10-16T06:56:24;0.20;;;0.00;;
54855;SDS011;40748;53.168;5.800;2022-10-16T07:01:23;0.10;;;0.00;;
54855;SDS011;40748;53.168;5.800;2022-10-16T07:03:53;0.10;;;0.00;;
54855;SDS011;40748;53.168;5.800;2022-10-16T07:06:23;0.10;;;0.00;;
54855;SDS011;40748;53.168;5.800;2022-10-16T07:08:52;0.10;;;0.00;;
54855;SDS011;40748;53.168;5.800;2022-10-16T07:11:23;0.10;;;0.00;;
54855;SDS011;40748;53.168;5.800;2022-10-16T07:13:52;0.10;;;0.00;;
54855;SDS011;40748;53.168;5.800;2022-10-16T07:16:23;0.10;;;0.00;;
54855;SDS011;40748;53.168;5.800;2022-10-16T07:18:53;0.10;;;0.00;;
54855;SDS011;40748;53.168;5.800;2022-10-16T07:21:22;0.10;;;0.00;;
54855;SDS011;40748;53.168;5.800;2022-10-16T07:23:52;0.10;;;0.00;;
54855;SDS011;40748;53.168;5.800;2022-10-16T07:26:22;0.10;;;0.00;;
54855;SDS011;40748;53.168;5.800;2022-10-16T07:28:52;0.10;;;0.00;;
54855;SDS011;40748;53.168;5.800;2022-10-16T07:31:22;0.10;;;0.00;;
54855;SDS011;40748;53.168;5.800;2022-10-16T07:33:52;0.10;;;0.00;;
54855;SDS011;40748;53.168;5.800;2022-10-16T07:36:22;0.10;;;0.00;;
54855;SDS011;40748;53.168;5.800;2022-10-16T07:38:52;0.10;;;0.00;;
54855;SDS011;40748;53.168;5.800;2022-10-16T07:41:22;0.20;;;0.00;;
54855;SDS011;40748;53.168;5.800;2022-10-16T07:43:53;0.20;;;0.00;;
54855;SDS011;40748;53.168;5.800;2022-10-16T07:46:22;0.20;;;0.00;;
54855;SDS011;40748;53.168;5.800;2022-10-16T07:48:52;0.20;;;0.00;;
54855;SDS011;40748;53.168;5.800;2022-10-16T07:51:23;0.40;;;0.10;;
54855;SDS011;40748;53.168;5.800;2022-10-16T07:53:52;0.40;;;0.10;;
54855;SDS011;40748;53.168;5.800;2022-10-16T07:56:22;0.40;;;0.10;;
54855;SDS011;40748;53.168;5.800;2022-10-16T07:58:52;0.40;;;0.10;;
54855;SDS011;40748;53.168;5.800;2022-10-16T08:01:22;0.40;;;0.20;;
54855;SDS011;40748;53.168;5.800;2022-10-16T08:03:52;0.40;;;0.20;;
54855;SDS011;40748;53.168;5.800;2022-10-16T08:06:22;0.40;;;0.20;;
54855;SDS011;40748;53.168;5.800;2022-10-16T08:08:52;0.40;;;0.20;;
54855;SDS011;40748;53.168;5.800;2022-10-16T08:11:22;0.40;;;0.10;;
54855;SDS011;40748;53.168;5.800;2022-10-16T08:13:52;0.40;;;0.10;;
54855;SDS011;40748;53.168;5.800;2022-10-16T08:16:22;0.40;;;0.10;;
54855;SDS011;40748;53.168;5.800;2022-10-16T08:18:52;0.40;;;0.10;;
54855;SDS011;40748;53.168;5.800;2022-10-16T08:21:22;0.30;;;0.10;;
54855;SDS011;40748;53.168;5.800;2022-10-16T08:23:53;0.30;;;0.10;;
54855;SDS011;40748;53.168;5.800;2022-10-16T08:28:52;0.30;;;0.10;;
54855;SDS011;40748;53.168;5.800;2022-10-16T08:31:22;0.10;;;0.00;;
54855;SDS011;40748;53.168;5.800;2022-10-16T08:33:52;0.10;;;0.00;;
54855;SDS011;40748;53.168;5.800;2022-10-16T08:36:22;0.10;;;0.00;;
54855;SDS011;40748;53.168;5.800;2022-10-16T08:38:52;0.10;;;0.00;;
54855;SDS011;40748;53.168;5.800;2022-10-16T08:41:35;1.10;;;0.70;;
54855;SDS011;40748;53.168;5.800;2022-10-16T08:44:05;1.10;;;0.70;;
54855;SDS011;40748;53.168;5.800;2022-10-16T08:46:35;1.10;;;0.70;;
54855;SDS011;40748;53.168;5.800;2022-10-16T08:48:53;1.10;;;0.70;;
54855;SDS011;40748;53.168;5.800;2022-10-16T08:51:24;2.30;;;0.50;;
54855;SDS011;40748;53.168;5.800;2022-10-16T08:53:53;2.30;;;0.50;;
54855;SDS011;40748;53.168;5.800;2022-10-16T08:56:22;2.30;;;0.50;;
54855;SDS011;40748;53.168;5.800;2022-10-16T08:58:53;2.30;;;0.50;;
54855;SDS011;40748;53.168;5.800;2022-10-16T09:01:24;0.10;;;0.00;;
54855;SDS011;40748;53.168;5.800;2022-10-16T09:04:04;0.10;;;0.00;;
54855;SDS011;40748;53.168;5.800;2022-10-16T09:06:31;0.10;;;0.00;;
54855;SDS011;40748;53.168;5.800;2022-10-16T09:09:04;0.10;;;0.00;;
54855;SDS011;40748;53.168;5.800;2022-10-16T09:11:33;3.40;;;0.20;;
54855;SDS011;40748;53.168;5.800;2022-10-16T09:13:59;3.40;;;0.20;;
54855;SDS011;40748;53.168;5.800;2022-10-16T09:16:24;3.40;;;0.20;;
54855;SDS011;40748;53.168;5.800;2022-10-16T09:18:58;3.40;;;0.20;;
54855;SDS011;40748;53.168;5.800;2022-10-16T09:21:24;0.40;;;0.30;;
54855;SDS011;40748;53.168;5.800;2022-10-16T09:23:54;0.40;;;0.30;;
54855;SDS011;40748;53.168;5.800;2022-10-16T09:26:22;0.40;;;0.30;;
54855;SDS011;40748;53.168;5.800;2022-10-16T09:28:52;0.40;;;0.30;;
54855;SDS011;40748;53.168;5.800;2022-10-16T09:31:22;0.30;;;0.20;;
54855;SDS011;40748;53.168;5.800;2022-10-16T09:36:24;0.30;;;0.20;;
54855;SDS011;40748;53.168;5.800;2022-10-16T09:39:01;0.30;;;0.20;;
54855;SDS011;40748;53.168;5.800;2022-10-16T09:41:22;0.40;;;0.10;;
54855;SDS011;40748;53.168;5.800;2022-10-16T09:43:54;0.40;;;0.10;;
54855;SDS011;40748;53.168;5.800;2022-10-16T09:46:25;0.40;;;0.10;;
54855;SDS011;40748;53.168;5.800;2022-10-16T09:48:54;0.40;;;0.10;;
54855;SDS011;40748;53.168;5.800;2022-10-16T09:51:24;0.20;;;0.00;;
54855;SDS011;40748;53.168;5.800;2022-10-16T09:53:56;0.20;;;0.00;;
54855;SDS011;40748;53.168;5.800;2022-10-16T10:01:26;2.10;;;0.80;;
54855;SDS011;40748;53.168;5.800;2022-10-16T10:03:56;2.10;;;0.80;;
54855;SDS011;40748;53.168;5.800;2022-10-16T10:06:24;2.10;;;0.80;;
54855;SDS011;40748;53.168;5.800;2022-10-16T10:08:53;2.10;;;0.80;;
54855;SDS011;40748;53.168;5.800;2022-10-16T10:11:40;0.30;;;0.10;;
54855;SDS011;40748;53.168;5.800;2022-10-16T10:13:52;0.30;;;0.10;;
54855;SDS011;40748;53.168;5.800;2022-10-16T10:16:23;0.30;;;0.10;;
54855;SDS011;40748;53.168;5.800;2022-10-16T10:18:57;0.30;;;0.10;;
54855;SDS011;40748;53.168;5.800;2022-10-16T10:21:22;0.40;;;0.40;;
54855;SDS011;40748;53.168;5.800;2022-10-16T10:23:54;0.40;;;0.40;;
54855;SDS011;40748;53.168;5.800;2022-10-16T10:26:24;0.40;;;0.40;;
54855;SDS011;40748;53.168;5.800;2022-10-16T10:28:55;0.40;;;0.40;;
54855;SDS011;40748;53.168;5.800;2022-10-16T10:31:26;5.10;;;0.40;;
54855;SDS011;40748;53.168;5.800;2022-10-16T10:33:55;5.10;;;0.40;;
54855;SDS011;40748;53.168;5.800;2022-10-16T10:36:29;5.10;;;0.40;;
54855;SDS011;40748;53.168;5.800;2022-10-16T10:38:56;5.10;;;0.40;;
54855;SDS011;40748;53.168;5.800;2022-10-16T10:41:39;0.10;;;0.00;;
54855;SDS011;40748;53.168;5.800;2022-10-16T10:44:01;0.10;;;0.00;;
54855;SDS011;40748;53.168;5.800;2022-10-16T10:46:30;0.10;;;0.00;;
54855;SDS011;40748;53.168;5.800;2022-10-16T10:49:03;0.10;;;0.00;;
54855;SDS011;40748;53.168;5.800;2022-10-16T10:51:28;0.50;;;0.10;;
54855;SDS011;40748;53.168;5.800;2022-10-16T10:54:02;0.50;;;0.10;;
54855;SDS011;40748;53.168;5.800;2022-10-16T10:56:37;0.50;;;0.10;;
54855;SDS011;40748;53.168;5.800;2022-10-16T10:59:04;0.50;;;0.10;;
54855;SDS011;40748;53.168;5.800;2022-10-16T11:01:26;0.30;;;0.20;;
54855;SDS011;40748;53.168;5.800;2022-10-16T11:04:07;0.30;;;0.20;;
54855;SDS011;40748;53.168;5.800;2022-10-16T11:06:26;0.30;;;0.20;;
54855;SDS011;40748;53.168;5.800;2022-10-16T11:08:55;0.30;;;0.20;;
54855;SDS011;40748;53.168;5.800;2022-10-16T11:11:27;0.10;;;0.00;;
54855;SDS011;40748;53.168;5.800;2022-10-16T11:13:55;0.10;;;0.00;;
54855;SDS011;40748;53.168;5.800;2022-10-16T11:16:26;0.10;;;0.00;;
54855;SDS011;40748;53.168;5.800;2022-10-16T11:18:57;0.10;;;0.00;;
54855;SDS011;40748;53.168;5.800;2022-10-16T11:21:23;0.30;;;0.00;;
54855;SDS011;40748;53.168;5.800;2022-10-16T11:23:56;0.30;;;0.00;;
54855;SDS011;40748;53.168;5.800;2022-10-16T11:26:26;0.30;;;0.00;;
54855;SDS011;40748;53.168;5.800;2022-10-16T11:28:53;0.30;;;0.00;;
54855;SDS011;40748;53.168;5.800;2022-10-16T11:31:29;0.40;;;0.10;;
54855;SDS011;40748;53.168;5.800;2022-10-16T11:33:59;0.40;;;0.10;;
54855;SDS011;40748;53.168;5.800;2022-10-16T11:36:25;0.40;;;0.10;;
54855;SDS011;40748;53.168;5.800;2022-10-16T11:38:56;0.40;;;0.10;;
54855;SDS011;40748;53.168;5.800;2022-10-16T11:41:27;0.10;;;0.00;;
54855;SDS011;40748;53.168;5.800;2022-10-16T11:44:00;0.10;;;0.00;;
54855;SDS011;40748;53.168;5.800;2022-10-16T11:46:24;0.10;;;0.00;;
54855;SDS011;40748;53.168;5.800;2022-10-16T11:48:57;0.10;;;0.00;;
54855;SDS011;40748;53.168;5.800;2022-10-16T11:51:32;0.10;;;0.00;;
54855;SDS011;40748;53.168;5.800;2022-10-16T11:53:56;0.10;;;0.00;;
54855;SDS011;40748;53.168;5.800;2022-10-16T11:56:23;0.10;;;0.00;;
54855;SDS011;40748;53.168;5.800;2022-10-16T11:58:57;0.10;;;0.00;;
54855;SDS011;40748;53.168;5.800;2022-10-16T12:01:27;0.80;;;0.70;;
54855;SDS011;40748;53.168;5.800;2022-10-16T12:04:04;0.80;;;0.70;;
54855;SDS011;40748;53.168;5.800;2022-10-16T12:06:28;0.80;;;0.70;;
54855;SDS011;40748;53.168;5.800;2022-10-16T12:08:53;0.80;;;0.70;;
54855;SDS011;40748;53.168;5.800;2022-10-16T12:11:30;5.00;;;0.40;;
54855;SDS011;40748;53.168;5.800;2022-10-16T12:14:04;5.00;;;0.40;;
54855;SDS011;40748;53.168;5.800;2022-10-16T12:16:23;5.00;;;0.40;;
54855;SDS011;40748;53.168;5.800;2022-10-16T12:19:03;5.00;;;0.40;;
54855;SDS011;40748;53.168;5.800;2022-10-16T12:21:30;1.60;;;0.90;;
54855;SDS011;40748;53.168;5.800;2022-10-16T12:23:54;1.60;;;0.90;;
54855;SDS011;40748;53.168;5.800;2022-10-16T12:26:24;1.60;;;0.90;;
54855;SDS011;40748;53.168;5.800;2022-10-16T12:28:53;1.60;;;0.90;;
54855;SDS011;40748;53.168;5.800;2022-10-16T12:31:22;0.10;;;0.00;;
54855;SDS011;40748;53.168;5.800;2022-10-16T12:33:57;0.10;;;0.00;;
54855;SDS011;40748;53.168;5.800;2022-10-16T12:36:28;0.10;;;0.00;;
54855;SDS011;40748;53.168;5.800;2022-10-16T12:38:52;0.10;;;0.00;;
54855;SDS011;40748;53.168;5.800;2022-10-16T12:41:26;0.10;;;0.00;;
54855;SDS011;40748;53.168;5.800;2022-10-16T12:43:52;0.10;;;0.00;;
54855;SDS011;40748;53.168;5.800;2022-10-16T12:46:37;0.10;;;0.00;;
54855;SDS011;40748;53.168;5.800;2022-10-16T12:49:05;0.10;;;0.00;;
54855;SDS011;40748;53.168;5.800;2022-10-16T12:51:24;1.10;;;0.70;;
54855;SDS011;40748;53.168;5.800;2022-10-16T12:53:59;1.10;;;0.70;;
54855;SDS011;40748;53.168;5.800;2022-10-16T12:56:27;1.10;;;0.70;;
54855;SDS011;40748;53.168;5.800;2022-10-16T12:59:02;1.10;;;0.70;;
54855;SDS011;40748;53.168;5.800;2022-10-16T13:01:33;2.00;;;0.20;;
54855;SDS011;40748;53.168;5.800;2022-10-16T13:04:04;2.00;;;0.20;;
54855;SDS011;40748;53.168;5.800;2022-10-16T13:06:33;2.00;;;0.20;;
54855;SDS011;40748;53.168;5.800;2022-10-16T13:11:27;0.20;;;0.10;;
54855;SDS011;40748;53.168;5.800;2022-10-16T13:14:05;0.20;;;0.10;;
54855;SDS011;40748;53.168;5.800;2022-10-16T13:16:28;0.20;;;0.10;;
54855;SDS011;40748;53.168;5.800;2022-10-16T13:21:32;0.10;;;0.00;;
54855;SDS011;40748;53.168;5.800;2022-10-16T13:23:57;0.10;;;0.00;;
54855;SDS011;40748;53.168;5.800;2022-10-16T13:26:31;0.10;;;0.00;;
54855;SDS011;40748;53.168;5.800;2022-10-16T13:28:52;0.10;;;0.00;;
54855;SDS011;40748;53.168;5.800;2022-10-16T13:31:23;0.10;;;0.00;;
54855;SDS011;40748;53.168;5.800;2022-10-16T13:33:54;0.10;;;0.00;;
54855;SDS011;40748;53.168;5.800;2022-10-16T13:36:24;0.10;;;0.00;;
54855;SDS011;40748;53.168;5.800;2022-10-16T13:39:09;0.10;;;0.00;;
54855;SDS011;40748;53.168;5.800;2022-10-16T13:41:22;0.40;;;0.30;;
54855;SDS011;40748;53.168;5.800;2022-10-16T13:43:54;0.40;;;0.30;;
54855;SDS011;40748;53.168;5.800;2022-10-16T13:46:24;0.40;;;0.30;;
54855;SDS011;40748;53.168;5.800;2022-10-16T13:48:58;0.40;;;0.30;;
54855;SDS011;40748;53.168;5.800;2022-10-16T13:51:22;1.40;;;1.10;;
54855;SDS011;40748;53.168;5.800;2022-10-16T13:53:52;1.40;;;1.10;;
54855;SDS011;40748;53.168;5.800;2022-10-16T13:56:25;1.40;;;1.10;;
54855;SDS011;40748;53.168;5.800;2022-10-16T13:59:02;1.40;;;1.10;;
54855;SDS011;40748;53.168;5.800;2022-10-16T14:01:25;0.10;;;0.00;;
54855;SDS011;40748;53.168;5.800;2022-10-16T14:03:52;0.10;;;0.00;;
54855;SDS011;40748;53.168;5.800;2022-10-16T14:06:22;0.10;;;0.00;;
54855;SDS011;40748;53.168;5.800;2022-10-16T14:08:59;0.10;;;0.00;;
54855;SDS011;40748;53.168;5.800;2022-10-16T14:11:23;0.20;;;0.10;;
54855;SDS011;40748;53.168;5.800;2022-10-16T14:13:53;0.20;;;0.10;;
54855;SDS011;40748;53.168;5.800;2022-10-16T14:16:23;0.20;;;0.10;;
54855;SDS011;40748;53.168;5.800;2022-10-16T14:18:56;0.20;;;0.10;;
54855;SDS011;40748;53.168;5.800;2022-10-16T14:21:22;0.30;;;0.10;;
54855;SDS011;40748;53.168;5.800;2022-10-16T14:23:52;0.30;;;0.10;;
54855;SDS011;40748;53.168;5.800;2022-10-16T14:26:26;0.30;;;0.10;;
54855;SDS011;40748;53.168;5.800;2022-10-16T14:29:04;0.30;;;0.10;;
54855;SDS011;40748;53.168;5.800;2022-10-16T14:31:26;0.20;;;0.00;;
54855;SDS011;40748;53.168;5.800;2022-10-16T14:33:52;0.20;;;0.00;;
54855;SDS011;40748;53.168;5.800;2022-10-16T14:36:23;0.20;;;0.00;;
54855;SDS011;40748;53.168;5.800;2022-10-16T14:38:58;0.20;;;0.00;;
54855;SDS011;40748;53.168;5.800;2022-10-16T14:41:22;0.10;;;0.00;;
54855;SDS011;40748;53.168;5.800;2022-10-16T14:43:53;0.10;;;0.00;;
54855;SDS011;40748;53.168;5.800;2022-10-16T14:46:28;0.10;;;0.00;;
54855;SDS011;40748;53.168;5.800;2022-10-16T14:48:58;0.10;;;0.00;;
54855;SDS011;40748;53.168;5.800;2022-10-16T14:51:22;0.20;;;0.00;;
54855;SDS011;40748;53.168;5.800;2022-10-16T14:53:52;0.20;;;0.00;;
54855;SDS011;40748;53.168;5.800;2022-10-16T14:56:23;0.20;;;0.00;;
54855;SDS011;40748;53.168;5.800;2022-10-16T14:58:53;0.20;;;0.00;;
54855;SDS011;40748;53.168;5.800;2022-10-16T15:01:22;0.10;;;0.00;;
54855;SDS011;40748;53.168;5.800;2022-10-16T15:03:52;0.10;;;0.00;;
54855;SDS011;40748;53.168;5.800;2022-10-16T15:06:22;0.10;;;0.00;;
54855;SDS011;40748;53.168;5.800;2022-10-16T15:08:52;0.10;;;0.00;;
54855;SDS011;40748;53.168;5.800;2022-10-16T15:11:22;0.10;;;0.00;;
54855;SDS011;40748;53.168;5.800;2022-10-16T15:13:52;0.10;;;0.00;;
54855;SDS011;40748;53.168;5.800;2022-10-16T15:16:22;0.10;;;0.00;;
54855;SDS011;40748;53.168;5.800;2022-10-16T15:18:53;0.10;;;0.00;;
54855;SDS011;40748;53.168;5.800;2022-10-16T15:21:24;0.10;;;0.00;;
54855;SDS011;40748;53.168;5.800;2022-10-16T15:23:53;0.10;;;0.00;;
54855;SDS011;40748;53.168;5.800;2022-10-16T15:26:22;0.10;;;0.00;;
54855;SDS011;40748;53.168;5.800;2022-10-16T15:28:52;0.10;;;0.00;;
54855;SDS011;40748;53.168;5.800;2022-10-16T15:31:23;0.50;;;0.20;;
54855;SDS011;40748;53.168;5.800;2022-10-16T15:33:53;0.50;;;0.20;;
54855;SDS011;40748;53.168;5.800;2022-10-16T15:36:25;0.50;;;0.20;;
54855;SDS011;40748;53.168;5.800;2022-10-16T15:38:52;0.50;;;0.20;;
54855;SDS011;40748;53.168;5.800;2022-10-16T15:41:22;0.10;;;0.00;;
54855;SDS011;40748;53.168;5.800;2022-10-16T15:43:52;0.10;;;0.00;;
54855;SDS011;40748;53.168;5.800;2022-10-16T15:46:23;0.10;;;0.00;;
54855;SDS011;40748;53.168;5.800;2022-10-16T15:48:56;0.10;;;0.00;;
54855;SDS011;40748;53.168;5.800;2022-10-16T15:51:22;0.10;;;0.00;;
54855;SDS011;40748;53.168;5.800;2022-10-16T15:53:53;0.10;;;0.00;;
54855;SDS011;40748;53.168;5.800;2022-10-16T15:56:22;0.10;;;0.00;;
54855;SDS011;40748;53.168;5.800;2022-10-16T15:58:52;0.10;;;0.00;;
54855;SDS011;40748;53.168;5.800;2022-10-16T16:01:22;0.10;;;0.00;;
54855;SDS011;40748;53.168;5.800;2022-10-16T16:03:52;0.10;;;0.00;;
54855;SDS011;40748;53.168;5.800;2022-10-16T16:06:22;0.10;;;0.00;;
54855;SDS011;40748;53.168;5.800;2022-10-16T16:08:52;0.10;;;0.00;;
54855;SDS011;40748;53.168;5.800;2022-10-16T16:11:22;0.10;;;0.00;;
54855;SDS011;40748;53.168;5.800;2022-10-16T16:13:52;0.10;;;0.00;;
54855;SDS011;40748;53.168;5.800;2022-10-16T16:16:22;0.10;;;0.00;;
54855;SDS011;40748;53.168;5.800;2022-10-16T16:18:52;0.10;;;0.00;;